createdAt,value
2022-10-05T00:02:38.436Z,10.9
2022-10-05T00:08:49.147Z,11
2022-10-05T00:14:59.762Z,10.9
2022-10-05T00:21:10.434Z,10.9
2022-10-05T00:27:21.113Z,10.9
2022-10-05T00:33:31.794Z,10.8
2022-10-05T00:39:42.463Z,10.9
2022-10-05T00:45:53.190Z,10.8
2022-10-05T00:51:55.586Z,10.8
2022-10-05T00:58:06.258Z,10.8
2022-10-05T01:04:16.928Z,10.8
2022-10-05T01:10:27.635Z,10.8
2022-10-05T01:16:38.305Z,10.8
2022-10-05T01:22:57.126Z,10.7
2022-10-05T01:29:07.879Z,10.7
2022-10-05T01:35:18.450Z,10.6
2022-10-05T01:40:31.554Z,10.7
2022-10-05T01:46:42.024Z,10.7
2022-10-05T01:52:44.498Z,10.6
2022-10-05T01:58:55.166Z,10.7
2022-10-05T02:05:05.837Z,10.7
2022-10-05T02:11:16.490Z,10.6
2022-10-05T02:17:27.167Z,10.6
2022-10-05T02:23:37.855Z,10.5
2022-10-05T02:29:48.507Z,10.5
2022-10-05T02:35:59.194Z,10.5
2022-10-05T02:42:09.823Z,10.6
2022-10-05T02:48:20.475Z,10.5
2022-10-05T02:54:23.003Z,10.5
2022-10-05T03:00:33.618Z,10.3
2022-10-05T03:06:44.790Z,10.4
2022-10-05T03:12:55.057Z,10.4
2022-10-05T03:19:05.625Z,10.4
2022-10-05T03:25:16.296Z,10.3
2022-10-05T03:31:27.038Z,10.3
2022-10-05T03:37:37.615Z,10.4
2022-10-05T03:43:48.268Z,10.4
2022-10-05T03:49:59.000Z,10.4
2022-10-05T03:56:03.307Z,10.4
2022-10-05T04:02:12.181Z,10.4
2022-10-05T04:08:22.921Z,10.3
2022-10-05T04:13:35.681Z,10.4
2022-10-05T04:19:46.355Z,10.4
2022-10-05T04:25:57.044Z,10.4
2022-10-05T04:32:07.706Z,10.4
2022-10-05T04:38:18.358Z,10.3
2022-10-05T04:44:29.038Z,10.2
2022-10-05T04:50:39.687Z,10.2
2022-10-05T04:56:42.160Z,10.2
2022-10-05T05:02:52.860Z,10.1
2022-10-05T05:09:03.493Z,10.2
2022-10-05T05:15:14.166Z,10.2
2022-10-05T05:21:24.864Z,10.2
2022-10-05T05:28:49.603Z,10.2
2022-10-05T05:33:54.346Z,10.2
2022-10-05T05:40:05.031Z,10.2
2022-10-05T05:46:15.698Z,10.2
2022-10-05T05:52:26.337Z,10.2
2022-10-05T05:58:28.851Z,10.2
2022-10-05T06:04:39.492Z,10.3
2022-10-05T06:10:50.171Z,10.5
2022-10-05T06:17:00.841Z,10.5
2022-10-05T06:23:11.455Z,10.6
2022-10-05T06:29:22.129Z,10.5
2022-10-05T06:35:32.848Z,10.6
2022-10-05T06:40:45.740Z,10.7
2022-10-05T06:46:56.377Z,10.7
2022-10-05T06:54:13.075Z,10.8
2022-10-05T07:00:23.649Z,10.7
2022-10-05T07:06:34.337Z,10.8
2022-10-05T07:12:45.093Z,10.9
2022-10-05T07:18:55.659Z,10.9
2022-10-05T07:25:06.335Z,11
2022-10-05T07:31:17.136Z,11.1
2022-10-05T07:37:27.680Z,11.1
2022-10-05T07:44:00.604Z,11.3
2022-10-05T07:49:49.084Z,11.3
2022-10-05T07:55:51.476Z,11.3
2022-10-05T08:02:02.347Z,11.5
2022-10-05T08:08:14.429Z,11.6
2022-10-05T08:14:23.449Z,11.6
2022-10-05T08:20:34.118Z,11.9
2022-10-05T08:26:44.833Z,11.9
2022-10-05T08:32:55.451Z,12
2022-10-05T08:39:06.125Z,12.1
2022-10-05T08:45:16.829Z,12.2
2022-10-05T08:51:27.493Z,12.3
2022-10-05T08:57:29.945Z,12.4
2022-10-05T09:03:40.643Z,12.7
2022-10-05T09:10:07.658Z,12.7
2022-10-05T09:16:18.367Z,13.1
2022-10-05T09:22:29.005Z,13.5
2022-10-05T09:28:39.765Z,13.5
2022-10-05T09:34:50.331Z,13.9
2022-10-05T09:40:00.460Z,13.9
2022-10-05T09:46:05.806Z,14.2
2022-10-05T09:52:18.972Z,14.2
2022-10-05T09:58:18.868Z,15.1
2022-10-05T10:04:29.518Z,17.8
2022-10-05T10:10:40.187Z,17.1
2022-10-05T10:16:50.928Z,15.4
2022-10-05T10:23:01.508Z,14.8
2022-10-05T10:29:12.194Z,14.9
2022-10-05T10:35:22.961Z,14.9
2022-10-05T10:41:33.525Z,14.7
2022-10-05T10:47:44.184Z,14.6
2022-10-05T10:53:54.880Z,13.5
2022-10-05T10:59:57.335Z,13.7
2022-10-05T11:06:07.977Z,13.4
2022-10-05T11:12:18.673Z,13.3
2022-10-05T11:18:29.334Z,13
2022-10-05T11:24:39.979Z,13
2022-10-05T11:30:51.312Z,13.1
2022-10-05T11:37:01.323Z,13
2022-10-05T11:42:14.257Z,12.9
2022-10-05T11:48:24.939Z,13.5
2022-10-05T11:55:49.702Z,13.2
2022-10-05T12:02:00.375Z,13.2
2022-10-05T12:08:11.095Z,12.7
2022-10-05T12:14:13.510Z,12.5
2022-10-05T12:20:24.233Z,13
2022-10-05T12:26:34.878Z,13
2022-10-05T12:32:45.517Z,13.2
2022-10-05T12:38:56.200Z,13.1
2022-10-05T12:45:07.019Z,12.9
2022-10-05T12:51:17.514Z,13
2022-10-05T12:57:28.206Z,12.6
2022-10-05T13:03:38.891Z,12.7
2022-10-05T13:09:41.328Z,12.8
2022-10-05T13:17:06.892Z,13.4
2022-10-05T13:23:16.822Z,13.6
2022-10-05T13:29:27.482Z,14
2022-10-05T13:35:38.161Z,14.1
2022-10-05T13:41:48.840Z,14.2
2022-10-05T13:48:07.660Z,14.2
2022-10-05T13:54:18.359Z,14.2
2022-10-05T14:00:29.036Z,14.1
2022-10-05T14:06:39.644Z,13.8
2022-10-05T14:19:09.261Z,14.4
2022-10-05T14:25:19.854Z,13.9
2022-10-05T14:31:30.617Z,14.1
2022-10-05T14:37:41.260Z,13.9
2022-10-05T14:43:51.859Z,14.2
2022-10-05T14:50:02.524Z,14
2022-10-05T14:56:13.541Z,14.5
2022-10-05T15:02:24.048Z,14.4
2022-10-05T15:09:40.463Z,14.1
2022-10-05T15:15:51.202Z,14.5
2022-10-05T15:22:01.795Z,14.7
2022-10-05T15:28:12.575Z,14.9
2022-10-05T15:34:23.206Z,15
2022-10-05T15:40:33.801Z,15.1
2022-10-05T15:46:44.474Z,15.5
2022-10-05T15:52:55.163Z,15.6
2022-10-05T15:59:05.829Z,16.1
2022-10-05T16:05:16.506Z,16.3
2022-10-05T16:11:19.202Z,16.5
2022-10-05T16:17:29.614Z,16.7
2022-10-05T16:23:40.281Z,16.6
2022-10-05T16:29:51.041Z,16.6
2022-10-05T16:36:01.618Z,16.6
2022-10-05T16:41:14.536Z,16.6
2022-10-05T16:47:27.631Z,16.3
2022-10-05T16:53:35.862Z,16.3
2022-10-05T16:59:46.541Z,16.5
2022-10-05T17:05:57.226Z,16.2
2022-10-05T17:11:59.677Z,16.2
2022-10-05T17:18:10.318Z,16.2
2022-10-05T17:24:21.166Z,16.1
2022-10-05T17:30:31.763Z,16
2022-10-05T17:36:42.349Z,16.2
2022-10-05T17:42:53.028Z,16.1
2022-10-05T17:49:03.667Z,16
2022-10-05T17:55:14.423Z,16.1
2022-10-05T18:00:19.092Z,16.1
2022-10-05T18:06:29.747Z,16.1
2022-10-05T18:13:46.436Z,16.1
2022-10-05T18:19:57.041Z,15.9
2022-10-05T18:26:07.668Z,16.1
2022-10-05T18:32:18.344Z,16.1
2022-10-05T18:38:29.307Z,16.4
2022-10-05T18:44:39.698Z,16.4
2022-10-05T18:50:50.361Z,16.2
2022-10-05T18:57:01.181Z,16.3
2022-10-05T19:03:11.691Z,16.2
2022-10-05T19:09:38.728Z,16
2022-10-05T19:15:41.261Z,15.7
2022-10-05T19:21:51.895Z,15.8
2022-10-05T19:28:02.594Z,15.6
2022-10-05T19:34:13.315Z,15.4
2022-10-05T19:40:23.898Z,15.5
2022-10-05T19:46:34.783Z,15.6
2022-10-05T19:52:49.874Z,15.3
2022-10-05T19:58:55.878Z,15.4
2022-10-05T20:05:06.545Z,15.7
2022-10-05T20:12:23.234Z,15.9
2022-10-05T20:18:33.830Z,15.8
2022-10-05T20:24:44.460Z,15.9
2022-10-05T20:30:55.327Z,15.9
2022-10-05T20:37:05.806Z,15.6
2022-10-05T20:43:16.476Z,15.8
2022-10-05T20:49:27.184Z,15.8
2022-10-05T20:55:37.822Z,15.7
2022-10-05T21:01:48.475Z,15.6
2022-10-05T21:07:59.189Z,15.7
2022-10-05T21:14:05.530Z,15.7
2022-10-05T21:20:12.299Z,15.7
2022-10-05T21:26:22.987Z,15.4
2022-10-05T21:32:33.668Z,15.4
2022-10-05T21:40:14.806Z,15.4
2022-10-05T21:46:25.532Z,15.4
2022-10-05T21:52:36.137Z,15
2022-10-05T21:58:46.793Z,15.2
2022-10-05T22:05:05.672Z,15.3
2022-10-05T22:11:16.333Z,15.4
2022-10-05T22:17:18.817Z,15.4
2022-10-05T22:23:29.508Z,15.3
2022-10-05T22:29:40.161Z,15.3
2022-10-05T22:35:50.847Z,15.2
2022-10-05T22:42:01.620Z,15.2
2022-10-05T22:48:12.125Z,15.3
2022-10-05T22:54:26.270Z,15.2
2022-10-05T23:00:56.487Z,15.2
2022-10-05T23:06:44.154Z,14.9
2022-10-05T23:12:59.698Z,14.6
2022-10-05T23:18:57.313Z,14.3
2022-10-05T23:25:07.960Z,14.3
2022-10-05T23:31:18.736Z,14.1
2022-10-05T23:37:29.288Z,14.1
2022-10-05T23:43:39.927Z,14
2022-10-05T23:49:50.602Z,14.1
2022-10-05T23:56:01.307Z,14.2
